Decoded Metar for KBKF (BUCKLEY in CO, USA) (IATA:BKF) | Meteo·Mobile Aviation Weather
aviador You're here:

KBKF Decoded Metar

BUCKLEY in CO, USA
Report Time2019-02-22 12:58:00
UTC Time2019-02-22 13:59:21
Flight Rules ifr IFR
Wind200° at 03 kt
W.Decomp.*RWY 14: 1.8 kt HW 2.4 kt RCW
W.Rank200° ranks 3
Current wind is below 200° avg. (8.3)
Visibility6437 m
Phenomena:Mist
Clouds:Overcast 006 Hf
Ceiling600 ft
Temp-6°C (ISA -10)
Dew Point-6°C (100% RH)
AAT-9.8°C
QNH1010 hPa
Density Alt4,646 ft
Elevation5,663 ft
Report Wrong Elevation
Raw Report
KBKF 221258Z 20003KT 4SM BR OVC006 M06/M06 A2982 RMK AO2A SNB16E39
SLP131 P0000 T10581058=

Extra information for KBKF:More info

Metar Taf Metar & Taf Last 4 Metars F.Rules Stats Wind Profile Meteogram Temp Stats Airport Information Weather charts Add Link Nearby VenuesMetar ALERT Operation Metar Decoded Social comments

AIRNAV info for KBKF